sensor_id;sensor_type;location;lat;lon;timestamp;P1;durP1;ratioP1;P2;durP2;ratioP2
19179;SDS011;9722;48.754;8.868;2023-12-20T00:01:50;0.97;;;0.97;;
19179;SDS011;9722;48.754;8.868;2023-12-20T00:05:10;0.90;;;0.90;;
19179;SDS011;9722;48.754;8.868;2023-12-20T00:08:30;1.10;;;1.00;;
19179;SDS011;9722;48.754;8.868;2023-12-20T00:11:51;1.20;;;1.10;;
19179;SDS011;9722;48.754;8.868;2023-12-20T00:15:11;1.47;;;1.37;;
19179;SDS011;9722;48.754;8.868;2023-12-20T00:18:32;1.00;;;1.00;;
19179;SDS011;9722;48.754;8.868;2023-12-20T00:21:53;1.00;;;1.00;;
19179;SDS011;9722;48.754;8.868;2023-12-20T00:25:13;1.10;;;1.00;;
19179;SDS011;9722;48.754;8.868;2023-12-20T00:28:34;1.30;;;1.20;;
19179;SDS011;9722;48.754;8.868;2023-12-20T00:31:54;0.97;;;0.90;;
19179;SDS011;9722;48.754;8.868;2023-12-20T00:35:15;1.93;;;1.37;;
19179;SDS011;9722;48.754;8.868;2023-12-20T00:38:36;1.30;;;1.00;;
19179;SDS011;9722;48.754;8.868;2023-12-20T00:41:56;1.53;;;0.63;;
19179;SDS011;9722;48.754;8.868;2023-12-20T00:45:17;0.70;;;0.70;;
19179;SDS011;9722;48.754;8.868;2023-12-20T00:48:37;0.70;;;0.70;;
19179;SDS011;9722;48.754;8.868;2023-12-20T00:51:58;0.60;;;0.60;;
19179;SDS011;9722;48.754;8.868;2023-12-20T00:55:18;0.63;;;0.63;;
19179;SDS011;9722;48.754;8.868;2023-12-20T00:58:39;0.70;;;0.70;;
19179;SDS011;9722;48.754;8.868;2023-12-20T01:01:59;0.80;;;0.80;;
19179;SDS011;9722;48.754;8.868;2023-12-20T01:05:20;0.80;;;0.80;;
19179;SDS011;9722;48.754;8.868;2023-12-20T01:08:43;1.30;;;0.97;;
19179;SDS011;9722;48.754;8.868;2023-12-20T01:12:03;0.80;;;0.80;;
19179;SDS011;9722;48.754;8.868;2023-12-20T01:15:24;1.30;;;0.90;;
19179;SDS011;9722;48.754;8.868;2023-12-20T01:18:44;0.83;;;0.83;;
19179;SDS011;9722;48.754;8.868;2023-12-20T01:22:05;1.47;;;1.30;;
19179;SDS011;9722;48.754;8.868;2023-12-20T01:25:25;0.80;;;0.70;;
19179;SDS011;9722;48.754;8.868;2023-12-20T01:28:46;0.63;;;0.50;;
19179;SDS011;9722;48.754;8.868;2023-12-20T01:32:06;1.70;;;0.80;;
19179;SDS011;9722;48.754;8.868;2023-12-20T01:35:27;0.77;;;0.77;;
19179;SDS011;9722;48.754;8.868;2023-12-20T01:38:47;1.17;;;1.03;;
19179;SDS011;9722;48.754;8.868;2023-12-20T01:42:08;0.40;;;0.40;;
19179;SDS011;9722;48.754;8.868;2023-12-20T01:45:28;0.30;;;0.30;;
19179;SDS011;9722;48.754;8.868;2023-12-20T01:48:49;0.40;;;0.40;;
19179;SDS011;9722;48.754;8.868;2023-12-20T01:52:09;0.30;;;0.30;;
19179;SDS011;9722;48.754;8.868;2023-12-20T01:55:31;0.60;;;0.40;;
19179;SDS011;9722;48.754;8.868;2023-12-20T01:58:54;0.40;;;0.40;;
19179;SDS011;9722;48.754;8.868;2023-12-20T02:02:16;0.40;;;0.40;;
19179;SDS011;9722;48.754;8.868;2023-12-20T02:05:37;0.20;;;0.20;;
19179;SDS011;9722;48.754;8.868;2023-12-20T02:08:58;0.50;;;0.23;;
19179;SDS011;9722;48.754;8.868;2023-12-20T02:12:19;0.30;;;0.30;;
19179;SDS011;9722;48.754;8.868;2023-12-20T02:15:40;0.20;;;0.20;;
19179;SDS011;9722;48.754;8.868;2023-12-20T02:19:04;0.20;;;0.20;;
19179;SDS011;9722;48.754;8.868;2023-12-20T02:22:30;1.07;;;0.80;;
19179;SDS011;9722;48.754;8.868;2023-12-20T02:25:51;0.10;;;0.10;;
19179;SDS011;9722;48.754;8.868;2023-12-20T02:29:11;2.40;;;1.03;;
19179;SDS011;9722;48.754;8.868;2023-12-20T02:32:32;0.20;;;0.20;;
19179;SDS011;9722;48.754;8.868;2023-12-20T02:35:52;0.23;;;0.20;;
19179;SDS011;9722;48.754;8.868;2023-12-20T02:39:13;0.10;;;0.10;;
19179;SDS011;9722;48.754;8.868;2023-12-20T02:42:34;0.23;;;0.20;;
19179;SDS011;9722;48.754;8.868;2023-12-20T02:45:54;1.27;;;0.87;;
19179;SDS011;9722;48.754;8.868;2023-12-20T02:49:15;0.17;;;0.17;;
19179;SDS011;9722;48.754;8.868;2023-12-20T02:52:35;1.57;;;1.10;;
19179;SDS011;9722;48.754;8.868;2023-12-20T02:55:56;1.23;;;0.47;;
19179;SDS011;9722;48.754;8.868;2023-12-20T02:59:17;0.10;;;0.10;;
19179;SDS011;9722;48.754;8.868;2023-12-20T03:02:37;0.40;;;0.10;;
19179;SDS011;9722;48.754;8.868;2023-12-20T03:05:58;2.47;;;0.40;;
19179;SDS011;9722;48.754;8.868;2023-12-20T03:09:19;0.13;;;0.13;;
19179;SDS011;9722;48.754;8.868;2023-12-20T03:12:40;0.10;;;0.10;;
19179;SDS011;9722;48.754;8.868;2023-12-20T03:16:00;0.10;;;0.10;;
19179;SDS011;9722;48.754;8.868;2023-12-20T03:19:21;0.10;;;0.10;;
19179;SDS011;9722;48.754;8.868;2023-12-20T03:22:41;0.10;;;0.10;;
19179;SDS011;9722;48.754;8.868;2023-12-20T03:26:02;0.10;;;0.10;;
19179;SDS011;9722;48.754;8.868;2023-12-20T03:29:23;0.10;;;0.10;;
19179;SDS011;9722;48.754;8.868;2023-12-20T03:32:43;0.10;;;0.10;;
19179;SDS011;9722;48.754;8.868;2023-12-20T03:36:04;0.10;;;0.10;;
19179;SDS011;9722;48.754;8.868;2023-12-20T03:39:25;0.10;;;0.10;;
19179;SDS011;9722;48.754;8.868;2023-12-20T03:42:45;0.10;;;0.10;;
19179;SDS011;9722;48.754;8.868;2023-12-20T03:46:07;0.20;;;0.20;;
19179;SDS011;9722;48.754;8.868;2023-12-20T03:49:28;0.10;;;0.10;;
19179;SDS011;9722;48.754;8.868;2023-12-20T03:52:49;0.13;;;0.13;;
19179;SDS011;9722;48.754;8.868;2023-12-20T03:56:09;0.50;;;0.30;;
19179;SDS011;9722;48.754;8.868;2023-12-20T03:59:30;0.20;;;0.20;;
19179;SDS011;9722;48.754;8.868;2023-12-20T04:02:55;0.23;;;0.23;;
19179;SDS011;9722;48.754;8.868;2023-12-20T04:06:16;0.20;;;0.20;;
19179;SDS011;9722;48.754;8.868;2023-12-20T04:09:38;0.10;;;0.10;;
19179;SDS011;9722;48.754;8.868;2023-12-20T04:12:58;0.10;;;0.10;;
19179;SDS011;9722;48.754;8.868;2023-12-20T04:16:18;0.10;;;0.10;;
19179;SDS011;9722;48.754;8.868;2023-12-20T04:19:39;0.20;;;0.20;;
19179;SDS011;9722;48.754;8.868;2023-12-20T04:23:00;0.17;;;0.17;;
19179;SDS011;9722;48.754;8.868;2023-12-20T04:26:20;0.20;;;0.20;;
19179;SDS011;9722;48.754;8.868;2023-12-20T04:29:40;0.40;;;0.40;;
19179;SDS011;9722;48.754;8.868;2023-12-20T04:33:01;0.20;;;0.20;;
19179;SDS011;9722;48.754;8.868;2023-12-20T04:36:22;0.10;;;0.10;;
19179;SDS011;9722;48.754;8.868;2023-12-20T04:39:43;0.10;;;0.10;;
19179;SDS011;9722;48.754;8.868;2023-12-20T04:43:03;0.20;;;0.20;;
19179;SDS011;9722;48.754;8.868;2023-12-20T04:46:24;0.30;;;0.20;;
19179;SDS011;9722;48.754;8.868;2023-12-20T04:49:44;0.10;;;0.10;;
19179;SDS011;9722;48.754;8.868;2023-12-20T04:53:05;0.57;;;0.10;;
19179;SDS011;9722;48.754;8.868;2023-12-20T04:56:25;0.20;;;0.20;;
19179;SDS011;9722;48.754;8.868;2023-12-20T04:59:46;0.17;;;0.17;;
19179;SDS011;9722;48.754;8.868;2023-12-20T05:03:06;0.10;;;0.10;;
19179;SDS011;9722;48.754;8.868;2023-12-20T05:06:27;0.20;;;0.20;;
19179;SDS011;9722;48.754;8.868;2023-12-20T05:09:47;0.10;;;0.10;;
19179;SDS011;9722;48.754;8.868;2023-12-20T05:13:08;0.10;;;0.10;;
19179;SDS011;9722;48.754;8.868;2023-12-20T05:16:28;0.20;;;0.20;;
19179;SDS011;9722;48.754;8.868;2023-12-20T05:19:49;0.20;;;0.20;;
19179;SDS011;9722;48.754;8.868;2023-12-20T05:23:09;0.20;;;0.20;;
19179;SDS011;9722;48.754;8.868;2023-12-20T05:26:31;0.20;;;0.20;;
19179;SDS011;9722;48.754;8.868;2023-12-20T05:29:52;0.10;;;0.10;;
19179;SDS011;9722;48.754;8.868;2023-12-20T05:33:12;0.20;;;0.20;;
19179;SDS011;9722;48.754;8.868;2023-12-20T05:36:33;0.20;;;0.20;;
19179;SDS011;9722;48.754;8.868;2023-12-20T05:39:53;0.17;;;0.17;;
19179;SDS011;9722;48.754;8.868;2023-12-20T05:43:14;0.30;;;0.30;;
19179;SDS011;9722;48.754;8.868;2023-12-20T05:46:34;0.20;;;0.20;;
19179;SDS011;9722;48.754;8.868;2023-12-20T05:49:55;0.93;;;0.63;;
19179;SDS011;9722;48.754;8.868;2023-12-20T05:53:15;3.67;;;1.67;;
19179;SDS011;9722;48.754;8.868;2023-12-20T05:56:36;2.53;;;0.90;;
19179;SDS011;9722;48.754;8.868;2023-12-20T05:59:56;0.50;;;0.50;;
19179;SDS011;9722;48.754;8.868;2023-12-20T06:03:17;0.20;;;0.20;;
19179;SDS011;9722;48.754;8.868;2023-12-20T06:06:43;0.20;;;0.20;;
19179;SDS011;9722;48.754;8.868;2023-12-20T06:10:04;0.20;;;0.20;;
19179;SDS011;9722;48.754;8.868;2023-12-20T06:13:26;0.20;;;0.20;;
19179;SDS011;9722;48.754;8.868;2023-12-20T06:16:47;0.20;;;0.20;;
19179;SDS011;9722;48.754;8.868;2023-12-20T06:20:07;0.20;;;0.20;;
19179;SDS011;9722;48.754;8.868;2023-12-20T06:23:28;0.10;;;0.10;;
19179;SDS011;9722;48.754;8.868;2023-12-20T06:26:49;0.17;;;0.17;;
19179;SDS011;9722;48.754;8.868;2023-12-20T06:30:09;0.17;;;0.17;;
19179;SDS011;9722;48.754;8.868;2023-12-20T06:33:30;0.20;;;0.20;;
19179;SDS011;9722;48.754;8.868;2023-12-20T06:36:51;0.20;;;0.20;;
19179;SDS011;9722;48.754;8.868;2023-12-20T06:40:11;0.20;;;0.20;;
19179;SDS011;9722;48.754;8.868;2023-12-20T06:43:32;0.80;;;0.80;;
19179;SDS011;9722;48.754;8.868;2023-12-20T06:46:53;0.40;;;0.40;;
19179;SDS011;9722;48.754;8.868;2023-12-20T06:50:13;0.40;;;0.30;;
19179;SDS011;9722;48.754;8.868;2023-12-20T06:53:34;0.30;;;0.30;;
19179;SDS011;9722;48.754;8.868;2023-12-20T06:56:55;0.30;;;0.30;;
19179;SDS011;9722;48.754;8.868;2023-12-20T07:00:15;1.03;;;0.20;;
19179;SDS011;9722;48.754;8.868;2023-12-20T07:03:36;0.20;;;0.20;;
19179;SDS011;9722;48.754;8.868;2023-12-20T07:06:56;0.47;;;0.30;;
19179;SDS011;9722;48.754;8.868;2023-12-20T07:10:20;0.30;;;0.30;;
19179;SDS011;9722;48.754;8.868;2023-12-20T07:13:40;0.60;;;0.40;;
19179;SDS011;9722;48.754;8.868;2023-12-20T07:17:01;0.40;;;0.40;;
19179;SDS011;9722;48.754;8.868;2023-12-20T07:20:21;0.60;;;0.60;;
19179;SDS011;9722;48.754;8.868;2023-12-20T07:23:42;1.03;;;0.83;;
19179;SDS011;9722;48.754;8.868;2023-12-20T07:27:02;0.50;;;0.50;;
19179;SDS011;9722;48.754;8.868;2023-12-20T07:30:23;1.13;;;0.70;;
19179;SDS011;9722;48.754;8.868;2023-12-20T07:33:43;0.97;;;0.87;;
19179;SDS011;9722;48.754;8.868;2023-12-20T07:37:04;2.20;;;1.07;;
19179;SDS011;9722;48.754;8.868;2023-12-20T07:40:24;1.23;;;1.23;;
19179;SDS011;9722;48.754;8.868;2023-12-20T07:43:45;1.80;;;1.30;;
19179;SDS011;9722;48.754;8.868;2023-12-20T07:47:05;1.73;;;1.40;;
19179;SDS011;9722;48.754;8.868;2023-12-20T07:50:26;1.30;;;1.20;;
19179;SDS011;9722;48.754;8.868;2023-12-20T07:53:47;1.50;;;1.20;;
19179;SDS011;9722;48.754;8.868;2023-12-20T07:57:08;1.50;;;1.40;;
19179;SDS011;9722;48.754;8.868;2023-12-20T08:00:28;1.60;;;1.50;;
19179;SDS011;9722;48.754;8.868;2023-12-20T08:03:49;0.80;;;0.80;;
19179;SDS011;9722;48.754;8.868;2023-12-20T08:07:10;1.27;;;1.27;;
19179;SDS011;9722;48.754;8.868;2023-12-20T08:10:30;1.53;;;1.10;;
19179;SDS011;9722;48.754;8.868;2023-12-20T08:13:51;1.80;;;0.83;;
19179;SDS011;9722;48.754;8.868;2023-12-20T08:17:11;1.00;;;0.90;;
19179;SDS011;9722;48.754;8.868;2023-12-20T08:20:32;1.33;;;1.20;;
19179;SDS011;9722;48.754;8.868;2023-12-20T08:23:53;0.90;;;0.90;;
19179;SDS011;9722;48.754;8.868;2023-12-20T08:27:13;2.17;;;1.00;;
19179;SDS011;9722;48.754;8.868;2023-12-20T08:30:34;1.30;;;1.00;;
19179;SDS011;9722;48.754;8.868;2023-12-20T08:33:54;0.83;;;0.83;;
19179;SDS011;9722;48.754;8.868;2023-12-20T08:37:15;0.80;;;0.80;;
19179;SDS011;9722;48.754;8.868;2023-12-20T08:40:35;0.90;;;0.80;;
19179;SDS011;9722;48.754;8.868;2023-12-20T08:43:56;1.40;;;1.00;;
19179;SDS011;9722;48.754;8.868;2023-12-20T08:47:16;2.27;;;0.90;;
19179;SDS011;9722;48.754;8.868;2023-12-20T08:50:37;2.27;;;1.30;;
19179;SDS011;9722;48.754;8.868;2023-12-20T08:53:58;1.83;;;1.20;;
19179;SDS011;9722;48.754;8.868;2023-12-20T08:57:19;1.33;;;0.80;;
19179;SDS011;9722;48.754;8.868;2023-12-20T09:00:41;1.37;;;0.93;;
19179;SDS011;9722;48.754;8.868;2023-12-20T09:04:01;2.03;;;0.90;;
19179;SDS011;9722;48.754;8.868;2023-12-20T09:07:22;0.80;;;0.80;;
19179;SDS011;9722;48.754;8.868;2023-12-20T09:10:44;1.83;;;0.80;;
19179;SDS011;9722;48.754;8.868;2023-12-20T09:14:04;1.43;;;0.83;;
19179;SDS011;9722;48.754;8.868;2023-12-20T09:17:25;1.40;;;0.60;;
19179;SDS011;9722;48.754;8.868;2023-12-20T09:20:45;1.43;;;0.80;;
19179;SDS011;9722;48.754;8.868;2023-12-20T09:24:06;1.63;;;0.73;;
19179;SDS011;9722;48.754;8.868;2023-12-20T09:27:26;2.10;;;0.60;;
19179;SDS011;9722;48.754;8.868;2023-12-20T09:30:47;1.17;;;0.90;;
19179;SDS011;9722;48.754;8.868;2023-12-20T09:34:08;1.37;;;0.80;;
19179;SDS011;9722;48.754;8.868;2023-12-20T09:37:28;2.30;;;0.70;;
19179;SDS011;9722;48.754;8.868;2023-12-20T09:40:49;2.33;;;0.87;;
19179;SDS011;9722;48.754;8.868;2023-12-20T09:44:15;1.83;;;0.90;;
19179;SDS011;9722;48.754;8.868;2023-12-20T09:47:38;2.47;;;0.90;;
19179;SDS011;9722;48.754;8.868;2023-12-20T09:50:58;2.77;;;0.90;;
19179;SDS011;9722;48.754;8.868;2023-12-20T09:54:20;2.57;;;0.97;;
19179;SDS011;9722;48.754;8.868;2023-12-20T09:57:41;2.63;;;0.93;;
19179;SDS011;9722;48.754;8.868;2023-12-20T10:01:02;1.70;;;0.80;;
19179;SDS011;9722;48.754;8.868;2023-12-20T10:04:23;2.63;;;0.90;;
19179;SDS011;9722;48.754;8.868;2023-12-20T10:07:48;1.60;;;0.80;;
19179;SDS011;9722;48.754;8.868;2023-12-20T10:11:09;2.20;;;0.70;;
19179;SDS011;9722;48.754;8.868;2023-12-20T10:14:30;2.27;;;1.10;;
19179;SDS011;9722;48.754;8.868;2023-12-20T10:17:50;1.77;;;0.80;;
19179;SDS011;9722;48.754;8.868;2023-12-20T10:21:10;1.60;;;1.10;;
19179;SDS011;9722;48.754;8.868;2023-12-20T10:24:31;5.47;;;1.50;;
19179;SDS011;9722;48.754;8.868;2023-12-20T10:28:11;3.93;;;0.90;;
19179;SDS011;9722;48.754;8.868;2023-12-20T10:31:33;3.80;;;0.93;;
19179;SDS011;9722;48.754;8.868;2023-12-20T10:34:54;3.90;;;0.90;;
19179;SDS011;9722;48.754;8.868;2023-12-20T10:38:16;1.30;;;1.00;;
19179;SDS011;9722;48.754;8.868;2023-12-20T10:41:36;0.80;;;0.63;;
19179;SDS011;9722;48.754;8.868;2023-12-20T10:45:01;1.70;;;0.80;;
19179;SDS011;9722;48.754;8.868;2023-12-20T10:48:22;2.57;;;0.97;;
19179;SDS011;9722;48.754;8.868;2023-12-20T10:51:48;2.80;;;0.80;;
19179;SDS011;9722;48.754;8.868;2023-12-20T10:55:11;2.63;;;0.90;;
19179;SDS011;9722;48.754;8.868;2023-12-20T10:58:32;2.77;;;0.80;;
19179;SDS011;9722;48.754;8.868;2023-12-20T11:01:54;3.03;;;0.83;;
19179;SDS011;9722;48.754;8.868;2023-12-20T11:05:31;2.10;;;0.80;;
19179;SDS011;9722;48.754;8.868;2023-12-20T11:09:03;2.43;;;0.70;;
19179;SDS011;9722;48.754;8.868;2023-12-20T11:16:01;1.30;;;0.80;;
19179;SDS011;9722;48.754;8.868;2023-12-20T11:19:23;2.87;;;1.10;;
19179;SDS011;9722;48.754;8.868;2023-12-20T11:22:53;1.53;;;0.70;;
19179;SDS011;9722;48.754;8.868;2023-12-20T11:26:18;1.60;;;1.00;;
19179;SDS011;9722;48.754;8.868;2023-12-20T11:29:53;1.37;;;0.80;;
19179;SDS011;9722;48.754;8.868;2023-12-20T11:33:16;3.30;;;1.00;;
19179;SDS011;9722;48.754;8.868;2023-12-20T11:36:37;1.83;;;0.70;;
19179;SDS011;9722;48.754;8.868;2023-12-20T11:40:06;3.93;;;1.10;;
19179;SDS011;9722;48.754;8.868;2023-12-20T11:43:32;2.37;;;1.07;;
19179;SDS011;9722;48.754;8.868;2023-12-20T11:46:58;3.20;;;1.23;;
19179;SDS011;9722;48.754;8.868;2023-12-20T11:50:20;1.40;;;1.20;;
19179;SDS011;9722;48.754;8.868;2023-12-20T11:53:41;3.30;;;1.03;;
19179;SDS011;9722;48.754;8.868;2023-12-20T11:57:02;5.67;;;1.50;;
19179;SDS011;9722;48.754;8.868;2023-12-20T12:00:23;6.27;;;3.67;;
19179;SDS011;9722;48.754;8.868;2023-12-20T12:03:45;3.67;;;1.33;;
19179;SDS011;9722;48.754;8.868;2023-12-20T12:07:05;2.60;;;1.00;;
19179;SDS011;9722;48.754;8.868;2023-12-20T12:10:26;3.10;;;1.37;;
19179;SDS011;9722;48.754;8.868;2023-12-20T12:13:47;3.33;;;1.17;;
19179;SDS011;9722;48.754;8.868;2023-12-20T12:17:11;1.00;;;0.80;;
19179;SDS011;9722;48.754;8.868;2023-12-20T12:20:33;1.87;;;1.20;;
19179;SDS011;9722;48.754;8.868;2023-12-20T12:23:53;2.50;;;1.00;;
19179;SDS011;9722;48.754;8.868;2023-12-20T12:27:27;1.97;;;1.20;;
19179;SDS011;9722;48.754;8.868;2023-12-20T12:30:56;2.90;;;1.40;;
19179;SDS011;9722;48.754;8.868;2023-12-20T12:34:17;3.60;;;1.30;;
19179;SDS011;9722;48.754;8.868;2023-12-20T12:37:38;1.73;;;1.00;;
19179;SDS011;9722;48.754;8.868;2023-12-20T12:41:00;1.47;;;1.00;;
19179;SDS011;9722;48.754;8.868;2023-12-20T12:44:20;1.60;;;1.00;;
19179;SDS011;9722;48.754;8.868;2023-12-20T12:47:43;3.00;;;1.80;;
19179;SDS011;9722;48.754;8.868;2023-12-20T12:51:05;4.40;;;2.13;;
19179;SDS011;9722;48.754;8.868;2023-12-20T12:54:27;2.97;;;1.43;;
19179;SDS011;9722;48.754;8.868;2023-12-20T12:57:48;3.57;;;1.40;;
19179;SDS011;9722;48.754;8.868;2023-12-20T13:01:08;2.17;;;1.23;;
19179;SDS011;9722;48.754;8.868;2023-12-20T13:04:29;2.70;;;0.93;;
19179;SDS011;9722;48.754;8.868;2023-12-20T13:07:49;3.50;;;1.07;;
19179;SDS011;9722;48.754;8.868;2023-12-20T13:11:10;1.40;;;0.90;;
19179;SDS011;9722;48.754;8.868;2023-12-20T13:14:31;2.13;;;0.83;;
19179;SDS011;9722;48.754;8.868;2023-12-20T13:17:53;2.07;;;0.87;;
19179;SDS011;9722;48.754;8.868;2023-12-20T13:21:13;3.20;;;0.90;;
19179;SDS011;9722;48.754;8.868;2023-12-20T13:24:34;1.00;;;0.80;;
19179;SDS011;9722;48.754;8.868;2023-12-20T13:27:54;2.77;;;0.83;;
19179;SDS011;9722;48.754;8.868;2023-12-20T13:31:15;1.53;;;0.70;;
19179;SDS011;9722;48.754;8.868;2023-12-20T13:34:36;1.60;;;0.80;;
19179;SDS011;9722;48.754;8.868;2023-12-20T13:37:56;3.03;;;0.87;;
19179;SDS011;9722;48.754;8.868;2023-12-20T13:41:17;2.23;;;0.90;;
19179;SDS011;9722;48.754;8.868;2023-12-20T13:44:38;2.07;;;0.70;;
19179;SDS011;9722;48.754;8.868;2023-12-20T13:47:58;1.60;;;0.70;;
19179;SDS011;9722;48.754;8.868;2023-12-20T13:51:19;1.43;;;0.80;;
19179;SDS011;9722;48.754;8.868;2023-12-20T13:54:40;2.00;;;0.73;;
19179;SDS011;9722;48.754;8.868;2023-12-20T13:58:01;1.77;;;0.80;;
19179;SDS011;9722;48.754;8.868;2023-12-20T14:01:23;4.20;;;1.00;;
19179;SDS011;9722;48.754;8.868;2023-12-20T14:04:43;1.37;;;0.90;;
19179;SDS011;9722;48.754;8.868;2023-12-20T14:08:04;3.03;;;0.87;;
19179;SDS011;9722;48.754;8.868;2023-12-20T14:11:25;4.40;;;1.93;;
19179;SDS011;9722;48.754;8.868;2023-12-20T14:14:46;2.03;;;0.83;;
19179;SDS011;9722;48.754;8.868;2023-12-20T14:18:06;1.03;;;0.80;;
19179;SDS011;9722;48.754;8.868;2023-12-20T14:21:30;2.23;;;0.70;;
19179;SDS011;9722;48.754;8.868;2023-12-20T14:24:50;1.77;;;1.03;;
19179;SDS011;9722;48.754;8.868;2023-12-20T14:28:11;2.80;;;0.97;;
19179;SDS011;9722;48.754;8.868;2023-12-20T14:31:34;3.20;;;0.90;;
19179;SDS011;9722;48.754;8.868;2023-12-20T14:34:55;3.30;;;0.90;;
19179;SDS011;9722;48.754;8.868;2023-12-20T14:38:15;3.07;;;1.27;;
19179;SDS011;9722;48.754;8.868;2023-12-20T14:41:36;2.57;;;0.90;;
19179;SDS011;9722;48.754;8.868;2023-12-20T14:44:56;1.63;;;1.00;;
19179;SDS011;9722;48.754;8.868;2023-12-20T14:48:17;1.77;;;1.40;;
19179;SDS011;9722;48.754;8.868;2023-12-20T14:51:38;3.10;;;1.33;;
19179;SDS011;9722;48.754;8.868;2023-12-20T14:54:58;4.53;;;1.00;;
19179;SDS011;9722;48.754;8.868;2023-12-20T14:58:19;3.73;;;1.93;;
19179;SDS011;9722;48.754;8.868;2023-12-20T15:01:39;2.00;;;1.20;;
19179;SDS011;9722;48.754;8.868;2023-12-20T15:05:00;2.53;;;0.97;;
19179;SDS011;9722;48.754;8.868;2023-12-20T15:08:22;1.80;;;0.73;;
19179;SDS011;9722;48.754;8.868;2023-12-20T15:11:43;3.93;;;1.30;;
19179;SDS011;9722;48.754;8.868;2023-12-20T15:15:04;1.37;;;0.90;;
19179;SDS011;9722;48.754;8.868;2023-12-20T15:18:24;3.13;;;1.00;;
19179;SDS011;9722;48.754;8.868;2023-12-20T15:21:45;1.13;;;0.93;;
19179;SDS011;9722;48.754;8.868;2023-12-20T15:25:06;4.97;;;1.17;;
19179;SDS011;9722;48.754;8.868;2023-12-20T15:28:29;2.17;;;1.10;;
19179;SDS011;9722;48.754;8.868;2023-12-20T15:31:50;1.33;;;0.83;;
19179;SDS011;9722;48.754;8.868;2023-12-20T15:35:10;2.47;;;1.40;;
19179;SDS011;9722;48.754;8.868;2023-12-20T15:38:31;1.43;;;1.30;;
19179;SDS011;9722;48.754;8.868;2023-12-20T15:41:51;2.93;;;1.33;;
19179;SDS011;9722;48.754;8.868;2023-12-20T15:45:12;1.43;;;1.10;;
19179;SDS011;9722;48.754;8.868;2023-12-20T15:48:32;2.93;;;1.30;;
19179;SDS011;9722;48.754;8.868;2023-12-20T15:51:53;1.90;;;1.20;;
19179;SDS011;9722;48.754;8.868;2023-12-20T15:55:13;4.07;;;1.10;;
19179;SDS011;9722;48.754;8.868;2023-12-20T15:58:34;1.97;;;1.63;;
19179;SDS011;9722;48.754;8.868;2023-12-20T16:01:54;3.20;;;1.00;;
19179;SDS011;9722;48.754;8.868;2023-12-20T16:05:15;1.23;;;1.10;;
19179;SDS011;9722;48.754;8.868;2023-12-20T16:08:35;1.97;;;1.37;;
19179;SDS011;9722;48.754;8.868;2023-12-20T16:11:56;1.27;;;1.00;;
19179;SDS011;9722;48.754;8.868;2023-12-20T16:15:16;2.13;;;1.43;;
19179;SDS011;9722;48.754;8.868;2023-12-20T16:18:37;3.20;;;1.10;;
19179;SDS011;9722;48.754;8.868;2023-12-20T16:21:58;1.97;;;1.30;;
19179;SDS011;9722;48.754;8.868;2023-12-20T16:25:18;2.03;;;1.60;;
19179;SDS011;9722;48.754;8.868;2023-12-20T16:28:39;3.23;;;1.20;;
19179;SDS011;9722;48.754;8.868;2023-12-20T16:31:59;4.73;;;2.60;;
19179;SDS011;9722;48.754;8.868;2023-12-20T16:35:20;4.73;;;3.03;;
19179;SDS011;9722;48.754;8.868;2023-12-20T16:38:41;22.37;;;8.30;;
19179;SDS011;9722;48.754;8.868;2023-12-20T16:42:01;8.23;;;4.60;;
19179;SDS011;9722;48.754;8.868;2023-12-20T16:45:22;9.20;;;6.60;;
19179;SDS011;9722;48.754;8.868;2023-12-20T16:48:43;6.47;;;4.80;;
19179;SDS011;9722;48.754;8.868;2023-12-20T16:52:04;4.83;;;2.97;;
19179;SDS011;9722;48.754;8.868;2023-12-20T16:55:24;7.57;;;5.30;;
19179;SDS011;9722;48.754;8.868;2023-12-20T16:58:45;24.27;;;13.90;;
19179;SDS011;9722;48.754;8.868;2023-12-20T17:02:05;17.63;;;11.00;;
19179;SDS011;9722;48.754;8.868;2023-12-20T17:05:26;4.50;;;3.50;;
19179;SDS011;9722;48.754;8.868;2023-12-20T17:08:46;2.20;;;2.00;;
19179;SDS011;9722;48.754;8.868;2023-12-20T17:12:07;3.63;;;2.30;;
19179;SDS011;9722;48.754;8.868;2023-12-20T17:15:27;2.10;;;1.90;;
19179;SDS011;9722;48.754;8.868;2023-12-20T17:18:48;2.20;;;1.60;;
19179;SDS011;9722;48.754;8.868;2023-12-20T17:22:09;1.50;;;1.40;;
19179;SDS011;9722;48.754;8.868;2023-12-20T17:25:29;2.27;;;1.30;;
19179;SDS011;9722;48.754;8.868;2023-12-20T17:28:50;1.07;;;1.00;;
19179;SDS011;9722;48.754;8.868;2023-12-20T17:32:11;1.07;;;1.00;;
19179;SDS011;9722;48.754;8.868;2023-12-20T17:35:31;1.20;;;1.10;;
19179;SDS011;9722;48.754;8.868;2023-12-20T17:38:52;1.73;;;1.40;;
19179;SDS011;9722;48.754;8.868;2023-12-20T17:42:12;1.50;;;1.40;;
19179;SDS011;9722;48.754;8.868;2023-12-20T17:45:33;1.23;;;1.13;;
19179;SDS011;9722;48.754;8.868;2023-12-20T17:48:53;1.43;;;1.33;;
19179;SDS011;9722;48.754;8.868;2023-12-20T17:52:15;2.20;;;1.83;;
19179;SDS011;9722;48.754;8.868;2023-12-20T17:55:36;2.03;;;1.93;;
19179;SDS011;9722;48.754;8.868;2023-12-20T17:58:57;1.60;;;1.50;;
19179;SDS011;9722;48.754;8.868;2023-12-20T18:02:18;2.67;;;2.20;;
19179;SDS011;9722;48.754;8.868;2023-12-20T18:05:38;1.63;;;1.53;;
19179;SDS011;9722;48.754;8.868;2023-12-20T18:08:59;0.70;;;0.70;;
19179;SDS011;9722;48.754;8.868;2023-12-20T18:12:19;0.97;;;0.87;;
19179;SDS011;9722;48.754;8.868;2023-12-20T18:15:40;0.70;;;0.70;;
19179;SDS011;9722;48.754;8.868;2023-12-20T18:19:01;1.80;;;1.43;;
19179;SDS011;9722;48.754;8.868;2023-12-20T18:22:21;3.00;;;0.77;;
19179;SDS011;9722;48.754;8.868;2023-12-20T18:25:41;2.97;;;1.67;;
19179;SDS011;9722;48.754;8.868;2023-12-20T18:29:02;2.97;;;1.40;;
19179;SDS011;9722;48.754;8.868;2023-12-20T18:32:22;2.83;;;1.73;;
19179;SDS011;9722;48.754;8.868;2023-12-20T18:35:44;0.73;;;0.73;;
19179;SDS011;9722;48.754;8.868;2023-12-20T18:39:05;0.80;;;0.73;;
19179;SDS011;9722;48.754;8.868;2023-12-20T18:42:25;1.80;;;0.70;;
19179;SDS011;9722;48.754;8.868;2023-12-20T18:45:46;0.97;;;0.80;;
19179;SDS011;9722;48.754;8.868;2023-12-20T18:49:06;1.80;;;0.93;;
19179;SDS011;9722;48.754;8.868;2023-12-20T18:52:27;1.03;;;0.70;;
19179;SDS011;9722;48.754;8.868;2023-12-20T18:55:47;1.00;;;0.70;;
19179;SDS011;9722;48.754;8.868;2023-12-20T18:59:08;1.00;;;0.90;;
19179;SDS011;9722;48.754;8.868;2023-12-20T19:02:29;0.83;;;0.67;;
19179;SDS011;9722;48.754;8.868;2023-12-20T19:05:51;1.07;;;0.50;;
19179;SDS011;9722;48.754;8.868;2023-12-20T19:09:11;3.43;;;0.70;;
19179;SDS011;9722;48.754;8.868;2023-12-20T19:12:32;1.30;;;0.93;;
19179;SDS011;9722;48.754;8.868;2023-12-20T19:15:52;2.03;;;0.80;;
19179;SDS011;9722;48.754;8.868;2023-12-20T19:19:13;0.77;;;0.77;;
19179;SDS011;9722;48.754;8.868;2023-12-20T19:22:33;1.07;;;0.70;;
19179;SDS011;9722;48.754;8.868;2023-12-20T19:25:55;1.00;;;0.90;;
19179;SDS011;9722;48.754;8.868;2023-12-20T19:29:16;1.90;;;0.70;;
19179;SDS011;9722;48.754;8.868;2023-12-20T19:32:36;1.80;;;0.90;;
19179;SDS011;9722;48.754;8.868;2023-12-20T19:35:57;1.40;;;0.80;;
19179;SDS011;9722;48.754;8.868;2023-12-20T19:39:17;1.60;;;0.60;;
19179;SDS011;9722;48.754;8.868;2023-12-20T19:42:38;2.50;;;0.83;;
19179;SDS011;9722;48.754;8.868;2023-12-20T19:45:59;1.70;;;0.83;;
19179;SDS011;9722;48.754;8.868;2023-12-20T19:49:20;1.07;;;0.90;;
19179;SDS011;9722;48.754;8.868;2023-12-20T19:52:41;2.00;;;0.60;;
19179;SDS011;9722;48.754;8.868;2023-12-20T19:56:01;0.50;;;0.50;;
19179;SDS011;9722;48.754;8.868;2023-12-20T19:59:22;0.77;;;0.50;;
19179;SDS011;9722;48.754;8.868;2023-12-20T20:02:42;1.13;;;0.70;;
19179;SDS011;9722;48.754;8.868;2023-12-20T20:06:03;1.23;;;1.10;;
19179;SDS011;9722;48.754;8.868;2023-12-20T20:09:23;1.80;;;1.43;;
19179;SDS011;9722;48.754;8.868;2023-12-20T20:12:44;2.43;;;2.00;;
19179;SDS011;9722;48.754;8.868;2023-12-20T20:16:04;1.87;;;1.00;;
19179;SDS011;9722;48.754;8.868;2023-12-20T20:19:25;1.43;;;0.60;;
19179;SDS011;9722;48.754;8.868;2023-12-20T20:22:46;1.07;;;0.80;;
19179;SDS011;9722;48.754;8.868;2023-12-20T20:26:06;2.13;;;0.93;;
19179;SDS011;9722;48.754;8.868;2023-12-20T20:29:27;1.10;;;0.77;;
19179;SDS011;9722;48.754;8.868;2023-12-20T20:32:47;0.67;;;0.67;;